createdAt,value
2016-11-04T00:00:21.766Z,9.4
2016-11-04T00:01:21.781Z,9.41
2016-11-04T00:02:21.795Z,9.44
2016-11-04T00:03:21.814Z,9.44
2016-11-04T00:04:21.835Z,9.44
2016-11-04T00:05:21.851Z,9.46
2016-11-04T00:06:21.859Z,9.43
2016-11-04T00:07:21.878Z,9.46
2016-11-04T00:08:21.891Z,9.47
2016-11-04T00:09:21.902Z,9.44
2016-11-04T00:10:21.920Z,9.43
2016-11-04T00:11:21.939Z,9.46
2016-11-04T00:12:21.946Z,9.46
2016-11-04T00:13:21.963Z,9.46
2016-11-04T00:14:22.002Z,9.4
2016-11-04T00:15:22.016Z,9.43
2016-11-04T00:16:22.006Z,9.47
2016-11-04T00:17:22.103Z,9.46
2016-11-04T00:18:22.150Z,9.43
2016-11-04T00:19:22.048Z,9.41
2016-11-04T00:20:22.067Z,9.36
2016-11-04T00:21:22.085Z,9.43
2016-11-04T00:22:22.096Z,9.44
2016-11-04T00:23:22.122Z,9.48
2016-11-04T00:24:22.144Z,9.44
2016-11-04T00:25:22.142Z,9.47
2016-11-04T00:26:22.163Z,9.44
2016-11-04T00:27:22.179Z,9.41
2016-11-04T00:28:22.204Z,9.46
2016-11-04T00:29:22.211Z,9.41
2016-11-04T00:30:22.225Z,9.47
2016-11-04T00:31:22.242Z,9.46
2016-11-04T00:32:22.263Z,9.44
2016-11-04T00:33:22.266Z,9.41
2016-11-04T00:34:22.291Z,9.41
2016-11-04T00:35:22.307Z,9.46
2016-11-04T00:36:22.326Z,9.47
2016-11-04T00:37:22.328Z,9.48
2016-11-04T00:38:22.343Z,9.48
2016-11-04T00:39:22.368Z,9.43
2016-11-04T00:40:22.379Z,9.48
2016-11-04T00:41:22.403Z,9.41
2016-11-04T00:42:22.416Z,9.44
2016-11-04T00:43:22.458Z,9.43
2016-11-04T00:44:22.446Z,9.46
2016-11-04T00:45:22.459Z,9.46
2016-11-04T00:46:22.475Z,9.4
2016-11-04T00:47:22.480Z,9.44
2016-11-04T00:48:22.503Z,9.46
2016-11-04T00:49:22.520Z,9.46
2016-11-04T00:50:22.539Z,9.41
2016-11-04T00:51:22.546Z,9.4
2016-11-04T00:52:22.561Z,9.4
2016-11-04T00:53:22.580Z,9.44
2016-11-04T00:54:22.594Z,9.43
2016-11-04T00:55:22.615Z,9.37
2016-11-04T00:56:22.623Z,9.39
2016-11-04T00:57:22.638Z,9.36
2016-11-04T00:58:22.660Z,9.32
2016-11-04T00:59:22.667Z,9.31
2016-11-04T01:00:22.691Z,9.34
2016-11-04T01:01:22.701Z,9.32
2016-11-04T01:02:22.718Z,9.39
2016-11-04T01:03:22.733Z,9.36
2016-11-04T01:04:22.755Z,9.36
2016-11-04T01:05:22.759Z,9.32
2016-11-04T01:06:22.812Z,9.25
2016-11-04T01:07:22.785Z,9.31
2016-11-04T01:08:22.813Z,9.31
2016-11-04T01:09:22.822Z,9.25
2016-11-04T01:10:22.837Z,9.29
2016-11-04T01:11:22.850Z,9.28
2016-11-04T01:12:22.870Z,9.25
2016-11-04T01:13:22.877Z,9.22
2016-11-04T01:14:22.907Z,9.26
2016-11-04T01:15:22.917Z,9.22
2016-11-04T01:16:22.935Z,9.25
2016-11-04T01:17:22.951Z,9.16
2016-11-04T01:18:22.958Z,9.23
2016-11-04T01:19:22.977Z,9.14
2016-11-04T01:20:22.998Z,9.14
2016-11-04T01:21:23.006Z,9.13
2016-11-04T01:22:23.021Z,9.18
2016-11-04T01:23:23.038Z,9.16
2016-11-04T01:24:23.048Z,9.16
2016-11-04T01:25:23.058Z,9.14
2016-11-04T01:26:23.079Z,9.19
2016-11-04T01:27:23.102Z,9.21
2016-11-04T01:28:23.112Z,9.14
2016-11-04T01:29:23.123Z,9.11
2016-11-04T01:30:23.136Z,9.19
2016-11-04T01:31:23.156Z,9.18
2016-11-04T01:32:23.171Z,9.22
2016-11-04T01:33:23.195Z,9.11
2016-11-04T01:34:23.233Z,9.14
2016-11-04T01:35:26.256Z,9.11
2016-11-04T01:36:23.242Z,9.11
2016-11-04T01:37:23.259Z,9.16
2016-11-04T01:38:23.280Z,9.1
2016-11-04T01:39:23.292Z,9.08
2016-11-04T01:40:23.301Z,9.06
2016-11-04T01:41:23.322Z,9.06
2016-11-04T01:42:23.338Z,9.06
2016-11-04T01:43:23.349Z,9.04
2016-11-04T01:44:23.358Z,9.11
2016-11-04T01:45:23.403Z,9.03
2016-11-04T01:46:23.395Z,8.95
2016-11-04T01:47:23.418Z,9.13
2016-11-04T01:48:23.424Z,8.99
2016-11-04T01:49:23.432Z,8.99
2016-11-04T01:50:23.453Z,9.03
2016-11-04T01:51:23.475Z,9.02
2016-11-04T01:52:23.490Z,8.97
2016-11-04T01:53:23.499Z,8.94
2016-11-04T01:54:23.514Z,8.94
2016-11-04T01:55:23.533Z,8.99
2016-11-04T01:56:23.543Z,8.92
2016-11-04T01:57:23.557Z,8.95
2016-11-04T01:58:23.571Z,8.92
2016-11-04T01:59:23.593Z,9
2016-11-04T02:00:23.604Z,8.99
2016-11-04T02:01:23.622Z,8.95
2016-11-04T02:02:23.633Z,9
2016-11-04T02:03:23.667Z,9.02
2016-11-04T02:04:23.675Z,8.95
2016-11-04T02:05:23.682Z,8.87
2016-11-04T02:06:23.695Z,8.88
2016-11-04T02:07:23.711Z,8.88
2016-11-04T02:08:23.729Z,8.85
2016-11-04T02:09:23.742Z,8.85
2016-11-04T02:10:23.762Z,8.85
2016-11-04T02:11:23.773Z,8.89
2016-11-04T02:12:23.783Z,8.91
2016-11-04T02:13:23.796Z,8.81
2016-11-04T02:14:23.816Z,8.74
2016-11-04T02:15:23.833Z,8.74
2016-11-04T02:16:23.843Z,8.82
2016-11-04T02:17:23.860Z,8.85
2016-11-04T02:18:23.875Z,8.87
2016-11-04T02:19:23.893Z,8.87
2016-11-04T02:20:23.903Z,8.78
2016-11-04T02:21:23.922Z,8.82
2016-11-04T02:22:23.932Z,8.85
2016-11-04T02:23:23.955Z,8.79
2016-11-04T02:24:23.968Z,8.82
2016-11-04T02:25:23.980Z,8.78
2016-11-04T02:26:23.998Z,8.69
2016-11-04T02:27:24.015Z,8.85
2016-11-04T02:28:24.030Z,8.78
2016-11-04T02:29:24.043Z,8.81
2016-11-04T02:30:24.056Z,8.78
2016-11-04T02:31:24.079Z,8.79
2016-11-04T02:32:24.079Z,8.79
2016-11-04T02:33:24.096Z,8.76
2016-11-04T02:34:24.114Z,8.76
2016-11-04T02:35:24.447Z,8.67
2016-11-04T02:36:24.151Z,8.69
2016-11-04T02:37:24.161Z,8.74
2016-11-04T02:38:24.178Z,8.67
2016-11-04T02:39:24.185Z,8.71
2016-11-04T02:40:24.208Z,8.66
2016-11-04T02:41:24.226Z,8.73
2016-11-04T02:42:24.236Z,8.66
2016-11-04T02:43:24.256Z,8.76
2016-11-04T02:44:24.261Z,8.69
2016-11-04T02:45:24.287Z,8.67
2016-11-04T02:46:24.293Z,8.7
2016-11-04T02:47:24.334Z,8.69
2016-11-04T02:48:24.327Z,8.63
2016-11-04T02:49:24.342Z,8.64
2016-11-04T02:50:24.347Z,8.61
2016-11-04T02:51:24.366Z,8.61
2016-11-04T02:52:24.381Z,8.66
2016-11-04T02:53:24.397Z,8.6
2016-11-04T02:54:24.417Z,8.56
2016-11-04T02:55:24.426Z,8.58
2016-11-04T02:56:24.441Z,8.64
2016-11-04T02:57:24.456Z,8.58
2016-11-04T02:58:24.484Z,8.53
2016-11-04T02:59:24.488Z,8.53
2016-11-04T03:00:24.499Z,8.52
2016-11-04T03:01:24.515Z,8.55
2016-11-04T03:02:24.523Z,8.55
2016-11-04T03:03:24.542Z,8.53
2016-11-04T03:04:24.561Z,8.52
2016-11-04T03:05:24.577Z,8.56
2016-11-04T03:06:24.589Z,8.48
2016-11-04T03:07:24.599Z,8.49
2016-11-04T03:08:24.621Z,8.49
2016-11-04T03:09:24.636Z,8.51
2016-11-04T03:10:24.651Z,8.51
2016-11-04T03:11:24.667Z,8.46
2016-11-04T03:12:24.681Z,8.48
2016-11-04T03:13:24.695Z,8.55
2016-11-04T03:14:24.712Z,8.51
2016-11-04T03:15:24.750Z,8.48
2016-11-04T03:16:24.742Z,8.45
2016-11-04T03:17:24.757Z,8.46
2016-11-04T03:18:24.774Z,8.44
2016-11-04T03:19:24.787Z,8.48
2016-11-04T03:20:24.796Z,8.44
2016-11-04T03:21:25.135Z,8.48
2016-11-04T03:22:24.814Z,8.44
2016-11-04T03:23:25.161Z,8.44
2016-11-04T03:24:25.169Z,8.41
2016-11-04T03:25:24.872Z,8.44
2016-11-04T03:26:24.883Z,8.42
2016-11-04T03:27:24.901Z,8.36
2016-11-04T03:28:25.228Z,8.41
2016-11-04T03:29:24.935Z,8.37
2016-11-04T03:30:24.953Z,8.41
2016-11-04T03:31:25.277Z,8.37
2016-11-04T03:32:24.971Z,8.41
2016-11-04T03:33:24.986Z,8.31
2016-11-04T03:34:25.005Z,8.33
2016-11-04T03:35:25.016Z,8.36
2016-11-04T03:36:25.031Z,8.37
2016-11-04T03:37:25.049Z,8.36
2016-11-04T03:38:25.063Z,8.36
2016-11-04T03:39:25.077Z,8.36
2016-11-04T03:40:25.091Z,8.38
2016-11-04T03:41:25.110Z,8.36
2016-11-04T03:42:25.120Z,8.28
2016-11-04T03:43:25.463Z,8.38
2016-11-04T03:44:25.145Z,8.37
2016-11-04T03:45:25.159Z,8.31
2016-11-04T03:46:25.178Z,8.33
2016-11-04T03:47:25.196Z,8.3
2016-11-04T03:48:25.528Z,8.26
2016-11-04T03:49:25.218Z,8.36
2016-11-04T03:50:25.243Z,8.33
2016-11-04T03:51:25.242Z,8.31
2016-11-04T03:52:25.267Z,8.36
2016-11-04T03:53:25.287Z,8.33
2016-11-04T03:54:25.296Z,8.31
2016-11-04T03:55:25.313Z,8.36
2016-11-04T03:56:25.334Z,8.31
2016-11-04T03:57:25.339Z,8.24
2016-11-04T03:58:25.352Z,8.19
2016-11-04T03:59:25.366Z,8.26
2016-11-04T04:00:25.381Z,8.2
2016-11-04T04:01:25.440Z,8.19
2016-11-04T04:02:25.412Z,8.31
2016-11-04T04:03:25.423Z,8.27
2016-11-04T04:04:25.474Z,8.28
2016-11-04T04:05:25.452Z,8.31
2016-11-04T04:06:25.474Z,8.19
2016-11-04T04:07:25.486Z,8.2
2016-11-04T04:08:25.508Z,8.24
2016-11-04T04:09:25.519Z,8.28
2016-11-04T04:10:25.546Z,8.26
2016-11-04T04:11:25.552Z,8.19
2016-11-04T04:12:25.557Z,8.28
2016-11-04T04:13:25.570Z,8.2
2016-11-04T04:14:25.593Z,8.24
2016-11-04T04:15:25.648Z,8.28
2016-11-04T04:16:25.605Z,8.27
2016-11-04T04:17:25.627Z,8.24
2016-11-04T04:18:25.979Z,8.19
2016-11-04T04:19:25.659Z,8.26
2016-11-04T04:20:25.674Z,8.19
2016-11-04T04:21:25.683Z,8.27
2016-11-04T04:22:25.697Z,8.23
2016-11-04T04:23:25.711Z,8.23
2016-11-04T04:24:25.732Z,8.24
2016-11-04T04:25:25.743Z,8.27
2016-11-04T04:26:25.770Z,8.2
2016-11-04T04:27:25.776Z,8.19
2016-11-04T04:28:25.791Z,8.23
2016-11-04T04:29:25.801Z,8.23
2016-11-04T04:30:25.821Z,8.19
2016-11-04T04:31:25.825Z,8.24
2016-11-04T04:32:25.844Z,8.23
2016-11-04T04:33:25.857Z,8.23
2016-11-04T04:34:26.201Z,8.2
2016-11-04T04:35:25.886Z,8.19
2016-11-04T04:36:25.910Z,8.2
2016-11-04T04:37:25.911Z,8.18
2016-11-04T04:38:25.932Z,8.18
2016-11-04T04:39:25.943Z,8.13
2016-11-04T04:40:25.972Z,8.16
2016-11-04T04:41:25.973Z,8.15
2016-11-04T04:42:25.995Z,8.2
2016-11-04T04:43:26.009Z,8.19
2016-11-04T04:44:26.015Z,8.19
2016-11-04T04:45:26.026Z,8.15
2016-11-04T04:46:26.050Z,8.13
2016-11-04T04:47:26.065Z,8.18
2016-11-04T04:48:26.073Z,8.19
2016-11-04T04:49:26.118Z,8.13
2016-11-04T04:50:26.103Z,8.13
2016-11-04T04:51:26.123Z,8.1
2016-11-04T04:52:26.135Z,8.16
2016-11-04T04:53:26.147Z,8.13
2016-11-04T04:54:26.168Z,8.12
2016-11-04T04:55:26.175Z,8.16
2016-11-04T04:56:26.192Z,8.09
2016-11-04T04:57:26.209Z,8.12
2016-11-04T04:58:26.222Z,8.12
2016-11-04T04:59:26.237Z,8.12
2016-11-04T05:00:26.244Z,8.24
2016-11-04T05:01:26.267Z,8.12
2016-11-04T05:02:26.681Z,8.2
2016-11-04T05:03:26.298Z,8.13
2016-11-04T05:04:26.311Z,8.12
2016-11-04T05:05:26.320Z,8.12
2016-11-04T05:06:26.340Z,8.15
2016-11-04T05:07:26.357Z,8.12
2016-11-04T05:08:26.371Z,8.13
2016-11-04T05:09:26.383Z,8.03
2016-11-04T05:10:26.393Z,8.1
2016-11-04T05:11:26.405Z,8.1
2016-11-04T05:12:26.434Z,8.1
2016-11-04T05:13:26.436Z,8.08
2016-11-04T05:14:26.454Z,8.09
2016-11-04T05:15:26.457Z,8.06
2016-11-04T05:16:26.910Z,8.06
2016-11-04T05:17:26.495Z,8.08
2016-11-04T05:18:26.516Z,8.05
2016-11-04T05:19:26.520Z,8.09
2016-11-04T05:20:26.539Z,8.12
2016-11-04T05:21:26.553Z,8.09
2016-11-04T05:22:26.566Z,8.08
2016-11-04T05:23:26.586Z,8.08
2016-11-04T05:24:26.602Z,8.12
2016-11-04T05:25:26.607Z,8.13
2016-11-04T05:26:26.620Z,8.06
2016-11-04T05:27:26.635Z,8.09
2016-11-04T05:28:26.654Z,8.05
2016-11-04T05:29:26.671Z,8.12
2016-11-04T05:30:26.687Z,8.03
2016-11-04T05:31:26.700Z,8.12
2016-11-04T05:32:26.716Z,8.12
2016-11-04T05:33:26.721Z,8.09
2016-11-04T05:34:26.737Z,8.08
2016-11-04T05:35:26.769Z,8.1
2016-11-04T05:36:26.806Z,8.12
2016-11-04T05:37:26.783Z,8.1
2016-11-04T05:38:26.805Z,8.03
2016-11-04T05:39:26.813Z,8.1
2016-11-04T05:40:26.827Z,8.15
2016-11-04T05:41:26.841Z,8.06
2016-11-04T05:42:26.847Z,8.06
2016-11-04T05:43:26.859Z,8.08
2016-11-04T05:44:26.890Z,8.05
2016-11-04T05:45:26.901Z,8.06
2016-11-04T05:46:26.909Z,8.12
2016-11-04T05:47:26.924Z,8
2016-11-04T05:48:26.938Z,8.08
2016-11-04T05:49:26.958Z,8.08
2016-11-04T05:50:26.971Z,8.08
2016-11-04T05:51:26.989Z,8.08
2016-11-04T05:52:26.993Z,8.05
2016-11-04T05:53:27.014Z,8.03
2016-11-04T05:54:27.026Z,8.08
2016-11-04T05:55:27.041Z,8.06
2016-11-04T05:56:27.100Z,7.98
2016-11-04T05:57:27.064Z,8.1
2016-11-04T05:58:27.098Z,7.95
2016-11-04T05:59:27.089Z,8.09
2016-11-04T06:00:27.113Z,8.1
2016-11-04T06:01:27.129Z,8.03
2016-11-04T06:02:27.149Z,8.09
2016-11-04T06:03:27.155Z,8.09
2016-11-04T06:04:27.200Z,8.09
2016-11-04T06:05:27.187Z,8.05
2016-11-04T06:06:27.203Z,8.03
2016-11-04T06:07:27.219Z,8
2016-11-04T06:08:27.225Z,8.05
2016-11-04T06:09:27.244Z,8.06
2016-11-04T06:10:27.269Z,8.08
2016-11-04T06:11:27.267Z,8.06
2016-11-04T06:12:27.282Z,8.05
2016-11-04T06:13:27.292Z,8.03
2016-11-04T06:14:27.312Z,8
2016-11-04T06:15:27.331Z,8.01
2016-11-04T06:16:27.349Z,8
2016-11-04T06:17:27.362Z,8.03
2016-11-04T06:18:27.369Z,8
2016-11-04T06:19:27.386Z,8.01
2016-11-04T06:20:27.401Z,8.08
2016-11-04T06:21:27.400Z,8.06
2016-11-04T06:22:27.427Z,8.05
2016-11-04T06:23:27.445Z,8.05
2016-11-04T06:24:27.458Z,8.03
2016-11-04T06:25:27.471Z,8
2016-11-04T06:26:27.494Z,8.03
2016-11-04T06:27:27.499Z,8
2016-11-04T06:28:27.506Z,8
2016-11-04T06:29:27.526Z,8.01
2016-11-04T06:30:27.653Z,8.03
2016-11-04T06:31:27.564Z,8
2016-11-04T06:32:27.582Z,8
2016-11-04T06:33:27.582Z,8.01
2016-11-04T06:34:27.600Z,8.05
2016-11-04T06:35:27.621Z,7.98
2016-11-04T06:36:27.625Z,8.05
2016-11-04T06:37:27.646Z,8.03
2016-11-04T06:38:27.672Z,7.97
2016-11-04T06:39:27.673Z,8.05
2016-11-04T06:40:27.683Z,8.03
2016-11-04T06:41:27.700Z,8.03
2016-11-04T06:42:27.723Z,8
2016-11-04T06:43:27.715Z,8.05
2016-11-04T06:44:27.742Z,8.01
2016-11-04T06:45:27.746Z,7.98
2016-11-04T06:46:27.772Z,8.06
2016-11-04T06:47:27.792Z,8.03
2016-11-04T06:48:27.805Z,8.05
2016-11-04T06:49:27.830Z,8.1
2016-11-04T06:50:27.832Z,8.12
2016-11-04T06:51:27.832Z,8.05
2016-11-04T06:52:27.846Z,8.06
2016-11-04T06:53:27.866Z,8.01
2016-11-04T06:54:27.895Z,8.13
2016-11-04T06:55:27.899Z,8.1
2016-11-04T06:56:27.914Z,8.15
2016-11-04T06:57:27.928Z,8.13
2016-11-04T06:58:27.944Z,8.2
2016-11-04T06:59:27.969Z,8.12
2016-11-04T07:00:28.100Z,8.15
2016-11-04T07:01:27.985Z,8.12
2016-11-04T07:02:28.000Z,8.18
2016-11-04T07:03:28.017Z,8.12
2016-11-04T07:04:28.024Z,8.15
2016-11-04T07:05:28.041Z,8.18
2016-11-04T07:06:28.059Z,8.16
2016-11-04T07:07:28.063Z,8.13
2016-11-04T07:08:28.084Z,8.13
2016-11-04T07:09:28.205Z,8.19
2016-11-04T07:10:28.111Z,8.16
2016-11-04T07:11:28.126Z,8.18
2016-11-04T07:12:28.143Z,8.24
2016-11-04T07:13:28.158Z,8.2
2016-11-04T07:14:28.167Z,8.18
2016-11-04T07:15:28.180Z,8.18
2016-11-04T07:16:28.197Z,8.18
2016-11-04T07:17:28.239Z,8.23
2016-11-04T07:18:28.225Z,8.23
2016-11-04T07:19:28.242Z,8.2
2016-11-04T07:20:28.250Z,8.23
2016-11-04T07:21:28.266Z,8.23
2016-11-04T07:22:28.283Z,8.2
2016-11-04T07:23:28.331Z,8.19
2016-11-04T07:24:28.311Z,8.23
2016-11-04T07:25:28.365Z,8.23
2016-11-04T07:26:28.333Z,8.2
2016-11-04T07:27:28.473Z,8.19
2016-11-04T07:28:28.372Z,8.23
2016-11-04T07:29:28.388Z,8.26
2016-11-04T07:30:28.508Z,8.36
2016-11-04T07:31:28.406Z,8.19
2016-11-04T07:32:28.427Z,8.19
2016-11-04T07:33:28.439Z,8.33
2016-11-04T07:34:28.572Z,8.36
2016-11-04T07:35:28.470Z,8.36
2016-11-04T07:36:28.489Z,8.37
2016-11-04T07:37:28.491Z,8.36
2016-11-04T07:38:28.511Z,8.36
2016-11-04T07:39:28.525Z,8.38
2016-11-04T07:40:28.538Z,8.38
2016-11-04T07:41:28.550Z,8.33
2016-11-04T07:42:28.690Z,8.34
2016-11-04T07:43:28.578Z,8.48
2016-11-04T07:44:28.595Z,8.33
2016-11-04T07:45:28.614Z,8.46
2016-11-04T07:46:28.796Z,8.42
2016-11-04T07:47:28.631Z,8.45
2016-11-04T07:48:28.655Z,8.42
2016-11-04T07:49:28.665Z,8.46
2016-11-04T07:50:28.686Z,8.46
2016-11-04T07:51:28.689Z,8.48
2016-11-04T07:52:28.711Z,8.51
2016-11-04T07:53:28.727Z,8.55
2016-11-04T07:54:28.736Z,8.51
2016-11-04T07:55:28.759Z,8.48
2016-11-04T07:56:28.765Z,8.52
2016-11-04T07:57:28.789Z,8.48
2016-11-04T07:58:28.910Z,8.52
2016-11-04T07:59:28.823Z,8.51
2016-11-04T08:00:28.861Z,8.52
2016-11-04T08:01:28.839Z,8.51
2016-11-04T08:02:28.892Z,8.56
2016-11-04T08:03:28.877Z,8.61
2016-11-04T08:04:28.883Z,8.51
2016-11-04T08:05:28.910Z,8.67
2016-11-04T08:06:28.912Z,8.64
2016-11-04T08:07:28.926Z,8.55
2016-11-04T08:08:28.949Z,8.63
2016-11-04T08:09:28.960Z,8.63
2016-11-04T08:10:28.979Z,8.67
2016-11-04T08:11:28.986Z,8.66
2016-11-04T08:12:28.997Z,8.74
2016-11-04T08:13:29.020Z,8.7
2016-11-04T08:14:29.031Z,8.69
2016-11-04T08:15:29.091Z,8.7
2016-11-04T08:16:29.058Z,8.76
2016-11-04T08:17:29.078Z,8.67
2016-11-04T08:18:29.089Z,8.76
2016-11-04T08:19:29.152Z,8.79
2016-11-04T08:20:29.120Z,8.78
2016-11-04T08:21:29.128Z,8.79
2016-11-04T08:22:29.141Z,8.71
2016-11-04T08:23:29.161Z,8.79
2016-11-04T08:24:29.167Z,8.78
2016-11-04T08:25:29.198Z,8.82
2016-11-04T08:26:29.511Z,8.84
2016-11-04T08:27:29.220Z,8.76
2016-11-04T08:28:29.241Z,8.84
2016-11-04T08:29:29.265Z,8.78
2016-11-04T08:30:29.299Z,8.84
2016-11-04T08:31:29.279Z,8.79
2016-11-04T08:32:29.297Z,8.82
2016-11-04T08:33:29.310Z,8.76
2016-11-04T08:34:29.435Z,8.85
2016-11-04T08:35:29.354Z,8.82
2016-11-04T08:36:29.354Z,8.78
2016-11-04T08:37:29.364Z,8.92
2016-11-04T08:38:29.382Z,8.94
2016-11-04T08:39:29.518Z,8.94
2016-11-04T08:40:29.412Z,8.94
2016-11-04T08:41:29.422Z,8.95
2016-11-04T08:42:29.554Z,8.99
2016-11-04T08:43:29.454Z,8.99
2016-11-04T08:44:29.592Z,8.94
2016-11-04T08:45:29.539Z,8.91
2016-11-04T08:46:29.499Z,9.03
2016-11-04T08:47:29.519Z,8.92
2016-11-04T08:48:29.528Z,8.99
2016-11-04T08:49:29.545Z,9.03
2016-11-04T08:50:29.614Z,9.04
2016-11-04T08:51:29.887Z,9.03
2016-11-04T08:52:29.583Z,9.06
2016-11-04T08:53:29.600Z,9.13
2016-11-04T08:54:29.620Z,9.18
2016-11-04T08:55:29.633Z,9.25
2016-11-04T08:56:29.649Z,9.16
2016-11-04T08:57:29.659Z,9.11
2016-11-04T08:58:29.760Z,9.25
2016-11-04T08:59:29.811Z,9.28
2016-11-04T09:00:29.703Z,9.25
2016-11-04T09:01:29.713Z,9.29
2016-11-04T09:02:29.823Z,9.25
2016-11-04T09:03:29.751Z,9.26
2016-11-04T09:04:29.760Z,9.36
2016-11-04T09:05:29.785Z,9.37
2016-11-04T09:06:29.961Z,9.43
2016-11-04T09:07:29.811Z,9.41
2016-11-04T09:08:29.824Z,9.44
2016-11-04T09:09:29.835Z,9.44
2016-11-04T09:10:29.850Z,9.4
2016-11-04T09:11:29.878Z,9.47
2016-11-04T09:12:29.882Z,9.47
2016-11-04T09:13:29.898Z,9.56
2016-11-04T09:14:30.241Z,9.58
2016-11-04T09:15:29.925Z,9.62
2016-11-04T09:16:29.944Z,9.54
2016-11-04T09:17:29.954Z,9.58
2016-11-04T09:18:29.974Z,9.72
2016-11-04T09:19:29.990Z,9.68
2016-11-04T09:20:29.999Z,9.66
2016-11-04T09:21:30.011Z,9.65
2016-11-04T09:22:30.036Z,9.65
2016-11-04T09:23:30.052Z,9.68
2016-11-04T09:24:30.057Z,9.66
2016-11-04T09:25:30.076Z,9.66
2016-11-04T09:26:30.213Z,9.79
2016-11-04T09:27:30.100Z,9.66
2016-11-04T09:28:30.123Z,9.64
2016-11-04T09:29:30.147Z,9.66
2016-11-04T09:30:30.268Z,9.83
2016-11-04T09:31:30.288Z,9.79
2016-11-04T09:32:30.191Z,9.73
2016-11-04T09:33:30.202Z,9.74
2016-11-04T09:34:30.220Z,9.83
2016-11-04T09:35:30.279Z,9.86
2016-11-04T09:36:30.248Z,9.82
2016-11-04T09:37:30.262Z,9.86
2016-11-04T09:38:30.276Z,9.84
2016-11-04T09:39:30.294Z,9.92
2016-11-04T09:40:30.311Z,9.94
2016-11-04T09:41:30.315Z,9.98
2016-11-04T09:42:30.338Z,9.97
2016-11-04T09:43:30.352Z,9.92
2016-11-04T09:44:30.374Z,10.05
2016-11-04T09:45:30.389Z,10.05
2016-11-04T09:46:30.400Z,10.13
2016-11-04T09:47:30.418Z,10.1
2016-11-04T09:48:30.429Z,10.15
2016-11-04T09:49:30.447Z,10.12
2016-11-04T09:50:30.459Z,10.17
2016-11-04T09:51:30.483Z,10.22
2016-11-04T09:52:30.497Z,10.33
2016-11-04T09:53:30.513Z,10.33
2016-11-04T09:54:30.526Z,10.25
2016-11-04T09:55:30.538Z,10.28
2016-11-04T09:56:30.553Z,10.33
2016-11-04T09:57:30.566Z,10.3
2016-11-04T09:58:30.587Z,10.38
2016-11-04T09:59:30.601Z,10.41
2016-11-04T10:00:30.625Z,10.42
2016-11-04T10:01:30.635Z,10.44
2016-11-04T10:02:30.655Z,10.46
2016-11-04T10:03:30.668Z,10.56
2016-11-04T10:04:30.674Z,10.56
2016-11-04T10:05:30.695Z,10.57
2016-11-04T10:06:30.814Z,10.63
2016-11-04T10:07:30.733Z,10.64
2016-11-04T10:08:30.859Z,10.67
2016-11-04T10:09:30.855Z,10.68
2016-11-04T10:10:30.809Z,10.63
2016-11-04T10:11:30.820Z,10.68
2016-11-04T10:12:30.829Z,10.69
2016-11-04T10:13:30.824Z,10.76
2016-11-04T10:14:30.840Z,10.72
2016-11-04T10:15:31.163Z,10.78
2016-11-04T10:16:30.873Z,10.78
2016-11-04T10:17:30.881Z,10.74
2016-11-04T10:18:30.902Z,10.75
2016-11-04T10:19:30.913Z,10.78
2016-11-04T10:20:30.929Z,10.79
2016-11-04T10:21:30.944Z,10.78
2016-11-04T10:22:30.961Z,10.78
2016-11-04T10:23:30.975Z,10.75
2016-11-04T10:24:30.995Z,10.76
2016-11-04T10:25:31.007Z,10.84
2016-11-04T10:26:31.025Z,10.78
2016-11-04T10:27:31.043Z,10.79
2016-11-04T10:28:31.057Z,10.69
2016-11-04T10:29:31.073Z,10.74
2016-11-04T10:30:31.089Z,10.87
2016-11-04T10:31:31.099Z,10.82
2016-11-04T10:32:31.110Z,10.9
2016-11-04T10:33:31.161Z,10.86
2016-11-04T10:34:31.156Z,10.79
2016-11-04T10:35:31.167Z,10.74
2016-11-04T10:36:31.179Z,10.81
2016-11-04T10:37:31.204Z,10.81
2016-11-04T10:38:31.217Z,10.81
2016-11-04T10:39:31.242Z,10.78
2016-11-04T10:40:31.249Z,10.75
2016-11-04T10:41:31.269Z,10.87
2016-11-04T10:42:31.275Z,10.78
2016-11-04T10:43:31.292Z,10.78
2016-11-04T10:44:31.332Z,10.86
2016-11-04T10:45:31.334Z,10.89
2016-11-04T10:46:31.356Z,10.75
2016-11-04T10:47:31.366Z,10.87
2016-11-04T10:48:31.386Z,10.89
2016-11-04T10:49:31.393Z,10.79
2016-11-04T10:50:31.409Z,10.81
2016-11-04T10:51:31.425Z,10.75
2016-11-04T10:52:31.446Z,10.76
2016-11-04T10:53:31.451Z,10.78
2016-11-04T10:54:31.472Z,10.87
2016-11-04T10:55:31.498Z,10.81
2016-11-04T10:56:31.559Z,10.82
2016-11-04T10:57:31.529Z,10.75
2016-11-04T10:58:31.533Z,10.81
2016-11-04T10:59:31.565Z,10.89
2016-11-04T11:00:31.567Z,10.9
2016-11-04T11:01:31.593Z,10.84
2016-11-04T11:02:31.608Z,10.79
2016-11-04T11:03:31.632Z,10.89
2016-11-04T11:04:31.632Z,10.87
2016-11-04T11:05:31.645Z,10.92
2016-11-04T11:06:31.668Z,10.92
2016-11-04T11:07:31.684Z,10.92
2016-11-04T11:08:31.701Z,10.92
2016-11-04T11:09:31.717Z,10.89
2016-11-04T11:10:31.733Z,10.93
2016-11-04T11:11:31.748Z,10.94
2016-11-04T11:12:32.075Z,10.94
2016-11-04T11:13:31.779Z,10.96
2016-11-04T11:14:31.799Z,10.96
2016-11-04T11:15:31.838Z,10.9
2016-11-04T11:16:31.825Z,11
2016-11-04T11:17:31.850Z,10.99
2016-11-04T11:18:31.914Z,11.05
2016-11-04T11:19:31.875Z,11.07
2016-11-04T11:20:31.936Z,11.07
2016-11-04T11:21:31.906Z,11
2016-11-04T11:22:31.951Z,10.97
2016-11-04T11:23:31.936Z,11
2016-11-04T11:24:31.969Z,11.04
2016-11-04T11:25:31.980Z,11
2016-11-04T11:26:32.009Z,10.96
2016-11-04T11:27:32.020Z,11.05
2016-11-04T11:28:32.067Z,10.99
2016-11-04T11:29:32.129Z,11.02
2016-11-04T11:30:32.053Z,11.02
2016-11-04T11:31:32.075Z,10.96
2016-11-04T11:32:32.103Z,11.02
2016-11-04T11:33:32.157Z,10.93
2016-11-04T11:34:32.223Z,11.02
2016-11-04T11:35:32.132Z,11.05
2016-11-04T11:36:32.156Z,11
2016-11-04T11:37:32.188Z,11
2016-11-04T11:38:32.193Z,10.94
2016-11-04T11:39:32.253Z,10.97
2016-11-04T11:40:32.226Z,10.93
2016-11-04T11:41:32.252Z,10.97
2016-11-04T11:42:32.256Z,10.99
2016-11-04T11:43:32.385Z,11.02
2016-11-04T11:44:32.276Z,11.02
2016-11-04T11:45:32.301Z,11.02
2016-11-04T11:46:32.318Z,11
2016-11-04T11:47:32.455Z,10.94
2016-11-04T11:48:32.364Z,10.96
2016-11-04T11:49:32.368Z,10.96
2016-11-04T11:50:32.388Z,10.96
2016-11-04T11:51:32.398Z,10.94
2016-11-04T11:52:32.412Z,10.97
2016-11-04T11:53:32.530Z,10.96
2016-11-04T11:54:32.529Z,10.84
2016-11-04T11:55:32.461Z,10.96
2016-11-04T11:56:32.482Z,10.9
2016-11-04T11:57:32.497Z,10.99
2016-11-04T11:58:32.515Z,10.97
2016-11-04T11:59:32.639Z,10.96
2016-11-04T12:00:32.654Z,10.99
2016-11-04T12:01:32.566Z,10.99
2016-11-04T12:02:32.582Z,10.97
2016-11-04T12:03:32.593Z,11
2016-11-04T12:04:32.609Z,11
2016-11-04T12:05:32.625Z,11.04
2016-11-04T12:06:32.746Z,10.99
2016-11-04T12:07:32.658Z,11
2016-11-04T12:08:32.885Z,10.97
2016-11-04T12:09:32.683Z,10.97
2016-11-04T12:10:32.707Z,11
2016-11-04T12:11:32.741Z,11.11
2016-11-04T12:12:32.740Z,11.02
2016-11-04T12:13:32.880Z,11.1
2016-11-04T12:14:32.776Z,11.1
2016-11-04T12:15:32.786Z,11.12
2016-11-04T12:16:32.797Z,11.12
2016-11-04T12:17:32.821Z,11.08
2016-11-04T12:18:32.838Z,11.1
2016-11-04T12:19:32.861Z,11.19
2016-11-04T12:20:32.868Z,11.17
2016-11-04T12:21:32.889Z,11.1
2016-11-04T12:22:32.905Z,11.22
2016-11-04T12:23:33.044Z,11.15
2016-11-04T12:24:32.940Z,11.18
2016-11-04T12:25:32.955Z,11.19
2016-11-04T12:26:33.159Z,11.22
2016-11-04T12:27:32.986Z,11.33
2016-11-04T12:28:33.108Z,11.25
2016-11-04T12:29:33.105Z,11.35
2016-11-04T12:30:33.039Z,11.37
2016-11-04T12:31:33.167Z,11.37
2016-11-04T12:32:33.139Z,11.36
2016-11-04T12:33:33.079Z,11.37
2016-11-04T12:34:33.107Z,11.4
2016-11-04T12:35:33.128Z,11.37
2016-11-04T12:36:33.131Z,11.44
2016-11-04T12:37:33.173Z,11.47
2016-11-04T12:38:33.176Z,11.54
2016-11-04T12:39:33.198Z,11.45
2016-11-04T12:40:33.201Z,11.47
2016-11-04T12:41:33.397Z,11.45
2016-11-04T12:42:33.230Z,11.48
2016-11-04T12:43:33.349Z,11.51
2016-11-04T12:44:33.278Z,11.54
2016-11-04T12:45:33.363Z,11.5
2016-11-04T12:46:33.301Z,11.54
2016-11-04T12:47:33.432Z,11.54
2016-11-04T12:48:33.337Z,11.52
2016-11-04T12:49:33.344Z,11.54
2016-11-04T12:50:33.477Z,11.55
2016-11-04T12:51:33.383Z,11.59
2016-11-04T12:52:33.401Z,11.62
2016-11-04T12:53:33.415Z,11.62
2016-11-04T12:54:33.439Z,11.57
2016-11-04T12:55:33.451Z,11.63
2016-11-04T12:56:33.490Z,11.55
2016-11-04T12:57:33.500Z,11.62
2016-11-04T12:58:33.517Z,11.62
2016-11-04T12:59:33.749Z,11.57
2016-11-04T13:00:33.596Z,11.66
2016-11-04T13:01:33.547Z,11.68
2016-11-04T13:02:33.565Z,11.65
2016-11-04T13:03:33.580Z,11.68
2016-11-04T13:04:33.592Z,11.66
2016-11-04T13:05:33.621Z,11.66
2016-11-04T13:06:33.638Z,11.6
2016-11-04T13:07:33.648Z,11.63
2016-11-04T13:08:33.667Z,11.69
2016-11-04T13:09:33.681Z,11.62
2016-11-04T13:10:33.707Z,11.69
2016-11-04T13:11:33.711Z,11.68
2016-11-04T13:12:33.741Z,11.75
2016-11-04T13:13:33.749Z,11.7
2016-11-04T13:14:33.890Z,11.65
2016-11-04T13:15:33.792Z,11.69